This is the latest recevied weather packets stored in our database for station/object KD7DVD-1. If no packets are shown the sender has not sent any weather packets the latest 10 day(s).
| Time | Temp. | Humidity | Pressure | Rain* | Wind** | Luminosity | Snow |
|---|---|---|---|---|---|---|---|
| 1787430617 | 21.67° C | 66% | 1016.9 hPa | 0 mm | - | - | - |
| 1787428822 | 21.67° C | 68% | 1017 hPa | 0 mm | - | - | - |
| 1787418016 | 17.78° C | 81% | 1017.2 hPa | 0 mm | - | - | - |
| 1787416217 | 17.78° C | 82% | 1017 hPa | 0 mm | - | - | - |
| 1787414416 | 17.22° C | 84% | 1017.1 hPa | 0 mm | - | - | - |
| 1787412616 | 16.67° C | 85% | 1017.1 hPa | 0 mm | - | - | - |
| 1787410817 | 16.11° C | 86% | 1016.6 hPa | 0 mm | - | - | - |
| 1787409016 | 16.11° C | 87% | 1016.6 hPa | 0 mm | - | - | - |
| 1787407216 | 16.11° C | 86% | 1016.7 hPa | 0 mm | - | - | - |
| 1787405416 | 16.11° C | 85% | 1016.1 hPa | 0 mm | - | - | - |
| 1787403616 | 16.11° C | 85% | 1016 hPa | 0 mm | - | - | - |
| 1787401820 | 16.11° C | 85% | 1015.9 hPa | 0 mm | - | - | - |
| 1787400015 | 16.11° C | 85% | 1015.9 hPa | 0 mm | - | - | - |
| 1787398217 | 16.11° C | 85% | 1015.9 hPa | 0 mm | - | - | - |
| 1787396417 | 16.11° C | 86% | 1015.8 hPa | 0 mm | - | - | - |
| 1787394617 | 16.11° C | 87% | 1015.6 hPa | 0 mm | - | - | - |
| 1787392817 | 16.11° C | 87% | 1015.5 hPa | 0 mm | - | - | - |
| 1787391017 | 16.11° C | 86% | 1015.3 hPa | 0 mm | - | - | - |
| 1787389217 | 16.11° C | 86% | 1015.2 hPa | 0 mm | - | - | - |
| 1787387417 | 16.67° C | 85% | 1015 hPa | 0 mm | - | - | - |
| 1787385617 | 17.22° C | 84% | 1015.4 hPa | 0 mm | - | - | - |
| 1787383817 | 17.22° C | 83% | 1015.6 hPa | 0 mm | - | - | - |
| 1787382017 | 17.78° C | 81% | 1015.6 hPa | 0 mm | - | - | - |
| 1787380216 | 18.33° C | 80% | 1015.6 hPa | 0 mm | - | - | - |
| 1787378416 | 18.89° C | 79% | 1015.4 hPa | 0 mm | - | - | - |
* Rain latest hour (hover to see other rain measurements)
** Current wind speed in m/s (hover to see current wind gust speed)